Terminal Aerodrome Forecast
Issued by NWS Caribou, ME

Home | Current Version | Previous Version | Text Only | Print | Product List | Glossary On
Versions: 1 2 3 4 5 6 7 8 9 10 11 12 13 14 15 16 17 18 19 20 21 22 23 24 25 26 27
000
FTUS41 KCAR 102009 AAB
TAFCAR
TAF AMD
KCAR 102009Z 1020/1118 31011KT 6SM -SHSN SCT025
     FM102100 31009KT P6SM SCT030
     FM111700 30007KT P6SM BKN020=

USA.gov is the U.S. government's official web portal to all federal, state and local government web resources and services.